This is the latest recevied weather packets stored in our database for station/object W8LMG. If no packets are shown the sender has not sent any weather packets the latest 10 day(s).
| Time | Temp. | Humidity | Pressure | Rain* | Wind** | Luminosity | Snow |
|---|---|---|---|---|---|---|---|
| 1777932865 | 17.78° C | 69% | 1013.1 hPa | 0 mm | - | 184 W/m² | - |
| 1777932562 | 17.22° C | 70% | 1013.1 hPa | 0 mm | - | 197 W/m² | - |
| 1777932259 | 16.67° C | 68% | 1013.2 hPa | 0 mm | - | 214 W/m² | - |
| 1777931956 | 16.67° C | 68% | 1013.1 hPa | 0 mm | - | 229 W/m² | - |
| 1777931653 | 16.11° C | 72% | 1013.2 hPa | 0 mm | - | 259 W/m² | - |
| 1777931349 | 15.56° C | 72% | 1013.3 hPa | 0 mm | - | 190 W/m² | - |
| 1777931046 | 15.56° C | 74% | 1013.3 hPa | 0 mm | - | 138 W/m² | - |
| 1777930743 | 15.56° C | 73% | 1013.4 hPa | 0 mm | - | 75 W/m² | - |
| 1777930438 | 16.11° C | 70% | 1013.3 hPa | 0 mm | - | 93 W/m² | - |
| 1777930136 | 15.56° C | 72% | 1013.2 hPa | 0 mm | - | 70 W/m² | - |
| 1777929831 | 15.56° C | 72% | 1013 hPa | 0 mm | - | 78 W/m² | - |
| 1777929529 | 15.56° C | 74% | 1013.1 hPa | 0 mm | - | 88 W/m² | - |
| 1777929225 | 15.56° C | 73% | 1013.1 hPa | 0 mm | - | 69 W/m² | - |
| 1777928923 | 15.56° C | 74% | 1013 hPa | 0 mm | - | 56 W/m² | - |
| 1777928620 | 15.56° C | 71% | 1012.9 hPa | 0 mm | - | 52 W/m² | - |
| 1777928317 | 16.67° C | 67% | 1013.5 hPa | 0 mm | - | 29 W/m² | - |
| 1777928015 | 18.33° C | 60% | 1013.7 hPa | 0 mm | - | 34 W/m² | - |
| 1777927713 | 20.56° C | 46% | 1013.2 hPa | 0 mm | - | 16 W/m² | - |
| 1777927411 | 20.56° C | 43% | 1012.5 hPa | 0 mm | - | 13 W/m² | - |
| 1777927110 | 20.56° C | 43% | 1012.4 hPa | 0 mm | - | 34 W/m² | - |
| 1777926807 | 20.56° C | 43% | 1012.1 hPa | 0 mm | - | 68 W/m² | - |
| 1777926502 | 21.11° C | 42% | 1012.2 hPa | 0 mm | - | 60 W/m² | - |
| 1777926200 | 21.11° C | 42% | 1012.2 hPa | 0 mm | - | 112 W/m² | - |
| 1777925896 | 22.22° C | 41% | 1012.1 hPa | 0 mm | - | 125 W/m² | - |
| 1777925594 | 22.78° C | 39% | 1011.9 hPa | 0 mm | - | 559 W/m² | - |
* Rain latest hour (hover to see other rain measurements)
** Current wind speed in m/s (hover to see current wind gust speed)